Newstead — VJN3167 — position and weather

sailwx.info

Track history (hours):
 
Tides and Currents Weather Stations Pressure Air Temp Water Temp Dewpoint Dewpoint Depression Visibility Wind Speed Wind Dir Waves Ship Positions

Newstead

Last reported at 2017-Dec-16 00:22 UTC. Time now 2017-Dec-16 09:21 UTC.
Position S 27°22' E 153°11'.

Length 22 m; draft 5.5 m.

Type: Tug. MMSI: 503194600.

Date/timePositionNaut miles runAvg speedWind from/ knotsBaromVisibWave heightAir tempDewpointWater temp
2017-Dec-16 00:22S 27°22' E 153°11'0 0.1
2017-Dec-15 20:44S 27°22' E 153°10'1 6.0
2017-Dec-15 20:30S 27°23' E 153°09'  
2017-Dec-12 19:31S 27°24' E 153°09'1 8.0
2017-Dec-12 19:22S 27°23' E 153°10'1 2.0
2017-Dec-12 18:59S 27°22' E 153°10'0 0.0
2017-Dec-12 15:30S 27°22' E 153°10'0 0.0
2017-Dec-12 12:15S 27°22' E 153°10'1 2.5
2017-Dec-12 11:55S 27°23' E 153°10'1 2.7
2017-Dec-12 11:29S 27°22' E 153°10'0 0.3
2017-Dec-12 10:09S 27°22' E 153°10'1 4.1
2017-Dec-12 10:00S 27°23' E 153°10'1 0.1
2017-Dec-11 20:22S 27°24' E 153°09'2 0.9
2017-Dec-11 18:21S 27°22' E 153°10'0 0.0
2017-Dec-11 12:07S 27°23' E 153°10'0 2.1
2017-Dec-11 12:00S 27°23' E 153°10'0 0.0
2017-Dec-11 11:30S 27°23' E 153°10'1 0.6
2017-Dec-11 08:55S 27°24' E 153°09'1 1.6
2017-Dec-11 08:07S 27°23' E 153°10'0 1.0
2017-Dec-11 07:56S 27°23' E 153°10'4 6.1
2017-Dec-11 07:21S 27°20' E 153°12'2 5.4
2017-Dec-11 07:00S 27°18' E 153°13'5 0.9
2017-Dec-11 00:54S 27°23' E 153°10'2 3.6
2017-Dec-11 00:20S 27°21' E 153°11'4 1.0
2017-Dec-10 20:40S 27°24' E 153°09'0 1.4
2017-Dec-10 20:30S 27°24' E 153°09'0 0.0
2017-Dec-09 07:10S 27°24' E 153°09'0 0.8
2017-Dec-09 06:43S 27°24' E 153°09'2 4.4
2017-Dec-09 06:22S 27°23' E 153°10'1 0.1
2017-Dec-08 15:47S 27°24' E 153°09'0 0.0
2017-Dec-08 15:29S 27°24' E 153°09'0 0.0
2017-Dec-08 13:20S 27°24' E 153°09'0 0.0
2017-Dec-08 12:56S 27°24' E 153°09'0 0.0
2017-Dec-08 12:26S 27°24' E 153°09'0 0.0
2017-Dec-08 11:56S 27°24' E 153°09'0 0.0
2017-Dec-08 09:44S 27°24' E 153°09'0 0.0
2017-Dec-08 09:26S 27°24' E 153°09'0 0.0
2017-Dec-08 08:44S 27°24' E 153°09'0 0.0
2017-Dec-08 08:23S 27°24' E 153°09'0 0.0
2017-Dec-08 05:30S 27°24' E 153°09'2 4.7
2017-Dec-08 05:00S 27°26' E 153°07'3 5.8
2017-Dec-08 04:29S 27°27' E 153°04'0 0.4
2017-Dec-08 03:54S 27°27' E 153°04'2 3.7
2017-Dec-08 03:28S 27°27' E 153°06'4 0.5
2017-Dec-07 18:38S 27°24' E 153°09'0 0.0
2017-Dec-07 05:32S 27°24' E 153°09'1 2.0
2017-Dec-07 05:11S 27°23' E 153°09'1 0.3
2017-Dec-07 02:15S 27°24' E 153°09'0 0.0
2017-Dec-06 21:06S 27°24' E 153°09'0 0.0
2017-Dec-06 20:42S 27°24' E 153°09'  
Track history (hours):
 
Tides and Currents Weather Stations Pressure Air Temp Water Temp Dewpoint Dewpoint Depression Visibility Wind Speed Wind Dir Waves Ship Positions

Newstead

Last reported at 2017-Dec-16 00:22 UTC. Time now 2017-Dec-16 09:21 UTC.
Position S 27°22' E 153°11'.

Length 22 m; draft 5.5 m.

Type: Tug. MMSI: 503194600.

Date/timePositionNaut miles runAvg speedWind from/ knotsBaromVisibWave heightAir tempDewpointWater temp
2017-Dec-16 00:22S 27°22' E 153°11'0 0.1
2017-Dec-15 20:44S 27°22' E 153°10'1 6.0
2017-Dec-15 20:30S 27°23' E 153°09'  
2017-Dec-12 19:31S 27°24' E 153°09'1 8.0
2017-Dec-12 19:22S 27°23' E 153°10'1 2.0
2017-Dec-12 18:59S 27°22' E 153°10'0 0.0
2017-Dec-12 15:30S 27°22' E 153°10'0 0.0
2017-Dec-12 12:15S 27°22' E 153°10'1 2.5
2017-Dec-12 11:55S 27°23' E 153°10'1 2.7
2017-Dec-12 11:29S 27°22' E 153°10'0 0.3
2017-Dec-12 10:09S 27°22' E 153°10'1 4.1
2017-Dec-12 10:00S 27°23' E 153°10'1 0.1
2017-Dec-11 20:22S 27°24' E 153°09'2 0.9
2017-Dec-11 18:21S 27°22' E 153°10'0 0.0
2017-Dec-11 12:07S 27°23' E 153°10'0 2.1
2017-Dec-11 12:00S 27°23' E 153°10'0 0.0
2017-Dec-11 11:30S 27°23' E 153°10'1 0.6
2017-Dec-11 08:55S 27°24' E 153°09'1 1.6
2017-Dec-11 08:07S 27°23' E 153°10'0 1.0
2017-Dec-11 07:56S 27°23' E 153°10'4 6.1
2017-Dec-11 07:21S 27°20' E 153°12'2 5.4
2017-Dec-11 07:00S 27°18' E 153°13'5 0.9
2017-Dec-11 00:54S 27°23' E 153°10'2 3.6
2017-Dec-11 00:20S 27°21' E 153°11'4 1.0
2017-Dec-10 20:40S 27°24' E 153°09'0 1.4
2017-Dec-10 20:30S 27°24' E 153°09'0 0.0
2017-Dec-09 07:10S 27°24' E 153°09'0 0.8
2017-Dec-09 06:43S 27°24' E 153°09'2 4.4
2017-Dec-09 06:22S 27°23' E 153°10'1 0.1
2017-Dec-08 15:47S 27°24' E 153°09'0 0.0
2017-Dec-08 15:29S 27°24' E 153°09'0 0.0
2017-Dec-08 13:20S 27°24' E 153°09'0 0.0
2017-Dec-08 12:56S 27°24' E 153°09'0 0.0
2017-Dec-08 12:26S 27°24' E 153°09'0 0.0
2017-Dec-08 11:56S 27°24' E 153°09'0 0.0
2017-Dec-08 09:44S 27°24' E 153°09'0 0.0
2017-Dec-08 09:26S 27°24' E 153°09'0 0.0
2017-Dec-08 08:44S 27°24' E 153°09'0 0.0
2017-Dec-08 08:23S 27°24' E 153°09'0 0.0
2017-Dec-08 05:30S 27°24' E 153°09'2 4.7
2017-Dec-08 05:00S 27°26' E 153°07'3 5.8
2017-Dec-08 04:29S 27°27' E 153°04'0 0.4
2017-Dec-08 03:54S 27°27' E 153°04'2 3.7
2017-Dec-08 03:28S 27°27' E 153°06'4 0.5
2017-Dec-07 18:38S 27°24' E 153°09'0 0.0
2017-Dec-07 05:32S 27°24' E 153°09'1 2.0
2017-Dec-07 05:11S 27°23' E 153°09'1 0.3
2017-Dec-07 02:15S 27°24' E 153°09'0 0.0
2017-Dec-06 21:06S 27°24' E 153°09'0 0.0
2017-Dec-06 20:42S 27°24' E 153°09'  

Dump ship's entire track history